createdAt,value
2018-05-27T00:01:48.146Z,25.22
2018-05-27T00:03:53.688Z,25.10
2018-05-27T00:05:58.962Z,24.62
2018-05-27T00:08:04.235Z,24.27
2018-05-27T00:10:14.065Z,24.24
2018-05-27T00:12:21.800Z,24.12
2018-05-27T00:14:27.101Z,23.78
2018-05-27T00:16:32.566Z,24.32
2018-05-27T00:18:37.892Z,24.19
2018-05-27T00:20:43.224Z,24.07
2018-05-27T00:22:49.601Z,24.31
2018-05-27T00:24:55.451Z,24.67
2018-05-27T00:27:01.166Z,24.29
2018-05-27T00:29:08.154Z,24.06
2018-05-27T00:31:18.168Z,23.85
2018-05-27T00:33:25.040Z,24.34
2018-05-27T00:35:31.199Z,24.53
2018-05-27T00:37:37.151Z,24.63
2018-05-27T00:39:42.423Z,24.98
2018-05-27T00:41:48.550Z,24.88
2018-05-27T00:43:54.208Z,24.93
2018-05-27T00:45:59.441Z,24.86
2018-05-27T00:48:06.781Z,24.68
2018-05-27T00:50:17.273Z,24.83
2018-05-27T00:52:25.055Z,24.80
2018-05-27T00:54:30.592Z,25.04
2018-05-27T00:56:36.667Z,25.02
2018-05-27T00:58:41.798Z,24.65
2018-05-27T01:00:47.716Z,24.73
2018-05-27T01:02:53.296Z,24.41
2018-05-27T01:04:58.530Z,24.67
2018-05-27T01:07:04.380Z,24.82
2018-05-27T01:09:14.667Z,24.88
2018-05-27T01:11:22.449Z,24.94
2018-05-27T01:13:28.114Z,24.96
2018-05-27T01:15:33.900Z,24.84
2018-05-27T01:17:39.389Z,24.58
2018-05-27T01:19:45.118Z,24.26
2018-05-27T01:21:51.185Z,24.55
2018-05-27T01:23:56.462Z,24.60
2018-05-27T01:26:02.044Z,24.64
2018-05-27T01:28:09.894Z,24.74
2018-05-27T01:30:18.704Z,24.65
2018-05-27T01:32:25.887Z,24.27
2018-05-27T01:34:31.181Z,24.56
2018-05-27T01:36:36.526Z,24.20
2018-05-27T01:38:42.078Z,24.32
2018-05-27T01:40:47.966Z,24.29
2018-05-27T01:42:53.748Z,24.14
2018-05-27T01:44:59.869Z,23.97
2018-05-27T01:47:06.740Z,24.19
2018-05-27T01:49:16.710Z,24.35
2018-05-27T01:51:25.522Z,23.91
2018-05-27T01:53:30.695Z,23.81
2018-05-27T01:55:35.960Z,24.10
2018-05-27T01:57:41.502Z,23.43
2018-05-27T01:59:47.486Z,23.77
2018-05-27T02:01:52.930Z,24.05
2018-05-27T02:03:59.242Z,23.94
2018-05-27T02:06:05.159Z,23.55
2018-05-27T02:08:13.542Z,23.42
2018-05-27T02:10:23.870Z,23.41
2018-05-27T02:12:29.750Z,23.47
2018-05-27T02:14:35.282Z,23.47
2018-05-27T02:16:41.380Z,23.78
2018-05-27T02:18:46.581Z,23.80
2018-05-27T02:20:52.245Z,23.55
2018-05-27T02:22:58.567Z,23.61
2018-05-27T02:25:03.812Z,23.97
2018-05-27T02:27:13.098Z,24.05
2018-05-27T02:29:20.801Z,24.13
2018-05-27T02:31:26.504Z,24.24
2018-05-27T02:33:32.419Z,23.99
2018-05-27T02:35:37.967Z,23.83
2018-05-27T02:37:43.727Z,23.65
2018-05-27T02:39:49.428Z,23.41
2018-05-27T02:41:55.457Z,23.22
2018-05-27T02:44:01.346Z,23.95
2018-05-27T02:46:08.587Z,24.20
2018-05-27T02:48:17.323Z,24.22
2018-05-27T02:50:27.426Z,23.98
2018-05-27T02:52:32.702Z,24.01
2018-05-27T02:54:38.278Z,24.00
2018-05-27T02:56:44.187Z,23.49
2018-05-27T02:58:49.896Z,23.84
2018-05-27T03:00:56.590Z,23.61
2018-05-27T03:03:02.435Z,23.62
2018-05-27T03:05:11.329Z,23.56
2018-05-27T03:07:20.345Z,23.59
2018-05-27T03:09:26.308Z,23.48
2018-05-27T03:11:32.088Z,23.66
2018-05-27T03:13:38.277Z,23.68
2018-05-27T03:15:44.496Z,23.92
2018-05-27T03:17:50.221Z,23.74
2018-05-27T03:19:56.369Z,23.65
2018-05-27T03:22:02.488Z,23.56
2018-05-27T03:24:08.392Z,23.34
2018-05-27T03:26:19.179Z,23.83
2018-05-27T03:28:26.197Z,24.01
2018-05-27T03:30:31.756Z,23.89
2018-05-27T03:32:37.672Z,23.65
2018-05-27T03:34:43.501Z,23.99
2018-05-27T03:36:49.298Z,24.09
2018-05-27T03:38:54.750Z,23.98
2018-05-27T03:41:00.453Z,24.07
2018-05-27T03:43:07.939Z,24.07
2018-05-27T03:45:19.172Z,24.03
2018-05-27T03:47:26.314Z,24.09
2018-05-27T03:49:32.262Z,24.00
2018-05-27T03:51:37.746Z,24.21
2018-05-27T03:53:43.542Z,23.86
2018-05-27T03:55:49.470Z,23.75
2018-05-27T03:57:55.456Z,23.99
2018-05-27T04:00:01.093Z,23.98
2018-05-27T04:02:09.001Z,23.85
2018-05-27T04:04:25.070Z,24.11
2018-05-27T04:06:40.588Z,23.82
2018-05-27T04:08:46.185Z,23.75
2018-05-27T04:10:53.208Z,24.10
2018-05-27T04:12:58.486Z,23.85
2018-05-27T04:15:03.738Z,23.72
2018-05-27T04:17:13.067Z,23.09
2018-05-27T04:19:19.726Z,22.92
2018-05-27T04:21:25.802Z,23.02
2018-05-27T04:23:31.899Z,23.18
2018-05-27T04:25:37.934Z,23.70
2018-05-27T04:27:43.926Z,23.94
2018-05-27T04:29:50.731Z,23.90
2018-05-27T04:31:56.157Z,24.16
2018-05-27T04:34:01.976Z,23.47
2018-05-27T04:36:11.295Z,23.91
2018-05-27T04:38:19.272Z,23.36
2018-05-27T04:40:25.667Z,23.78
2018-05-27T04:42:31.474Z,23.77
2018-05-27T04:44:36.942Z,23.90
2018-05-27T04:46:42.699Z,23.84
2018-05-27T04:48:49.217Z,23.63
2018-05-27T04:50:54.484Z,23.65
2018-05-27T04:53:00.345Z,23.92
2018-05-27T04:55:08.195Z,24.06
2018-05-27T04:57:16.932Z,24.19
2018-05-27T04:59:25.393Z,23.75
2018-05-27T05:01:31.546Z,23.62
2018-05-27T05:03:39.118Z,23.60
2018-05-27T05:05:45.051Z,23.66
2018-05-27T05:07:51.121Z,23.68
2018-05-27T05:09:56.956Z,23.59
2018-05-27T05:12:02.214Z,23.61
2018-05-27T05:14:11.580Z,23.82
2018-05-27T05:16:19.568Z,23.99
2018-05-27T05:18:26.073Z,23.84
2018-05-27T05:20:32.118Z,23.62
2018-05-27T05:22:38.083Z,23.91
2018-05-27T05:24:43.350Z,24.21
2018-05-27T05:26:49.661Z,24.11
2018-05-27T05:28:56.028Z,24.27
2018-05-27T05:31:01.822Z,24.07
2018-05-27T05:33:08.391Z,24.08
2018-05-27T05:35:16.933Z,24.36
2018-05-27T05:37:26.238Z,24.63
2018-05-27T05:39:32.666Z,24.54
2018-05-27T05:41:38.429Z,24.59
2018-05-27T05:43:44.517Z,24.51
2018-05-27T05:45:51.018Z,24.05
2018-05-27T05:47:56.866Z,24.09
2018-05-27T05:50:02.590Z,24.44
2018-05-27T05:52:11.623Z,24.26
2018-05-27T05:54:20.213Z,24.53
2018-05-27T05:56:26.615Z,24.75
2018-05-27T05:58:32.757Z,24.54
2018-05-27T06:00:39.147Z,24.34
2018-05-27T06:02:44.318Z,24.31
2018-05-27T06:04:50.766Z,24.71
2018-05-27T06:06:56.475Z,25.00
2018-05-27T06:09:01.907Z,24.83
2018-05-27T06:11:09.321Z,25.17
2018-05-27T06:13:18.835Z,25.29
2018-05-27T06:15:25.796Z,24.94
2018-05-27T06:17:31.418Z,24.83
2018-05-27T06:19:36.635Z,25.01
2018-05-27T06:21:42.263Z,24.80
2018-05-27T06:23:48.053Z,24.72
2018-05-27T06:25:53.392Z,25.19
2018-05-27T06:27:59.474Z,25.30
2018-05-27T06:30:06.143Z,25.22
2018-05-27T06:32:15.169Z,25.55
2018-05-27T06:34:23.794Z,25.53
2018-05-27T06:36:29.842Z,25.02
2018-05-27T06:38:35.422Z,24.85
2018-05-27T06:40:41.736Z,24.91
2018-05-27T06:42:47.747Z,24.91
2018-05-27T06:44:53.696Z,24.91
2018-05-27T06:46:59.460Z,24.92
2018-05-27T06:49:06.646Z,25.03
2018-05-27T06:51:15.301Z,24.96
2018-05-27T06:53:23.438Z,25.17
2018-05-27T06:55:29.072Z,25.13
2018-05-27T06:57:34.700Z,25.22
2018-05-27T06:59:40.302Z,25.36
2018-05-27T07:01:45.989Z,25.27
2018-05-27T07:03:51.675Z,25.31
2018-05-27T07:05:57.019Z,25.33
2018-05-27T07:08:02.570Z,25.23
2018-05-27T07:10:11.366Z,25.22
2018-05-27T07:12:18.569Z,25.49
2018-05-27T07:14:27.958Z,25.65
2018-05-27T07:16:33.930Z,25.67
2018-05-27T07:18:39.225Z,25.65
2018-05-27T07:20:45.001Z,25.67
2018-05-27T07:22:50.185Z,25.47
2018-05-27T07:24:55.466Z,25.73
2018-05-27T07:27:01.572Z,25.56
2018-05-27T07:29:09.890Z,25.41
2018-05-27T07:31:16.990Z,25.64
2018-05-27T07:33:25.343Z,25.51
2018-05-27T07:35:31.154Z,25.43
2018-05-27T07:37:37.191Z,25.59
2018-05-27T07:39:43.276Z,25.57
2018-05-27T07:41:48.942Z,25.58
2018-05-27T07:43:54.169Z,25.60
2018-05-27T07:45:59.628Z,25.59
2018-05-27T07:48:05.497Z,25.52
2018-05-27T07:50:14.717Z,25.49
2018-05-27T07:52:23.573Z,25.64
2018-05-27T07:54:28.902Z,25.58
2018-05-27T07:56:34.258Z,25.77
2018-05-27T07:58:41.978Z,25.89
2018-05-27T08:00:47.472Z,25.66
2018-05-27T08:02:53.204Z,25.66
2018-05-27T08:05:00.308Z,25.82
2018-05-27T08:07:14.777Z,25.77
2018-05-27T08:09:24.665Z,25.75
2018-05-27T08:11:30.883Z,25.86
2018-05-27T08:13:37.103Z,25.83
2018-05-27T08:15:42.903Z,25.81
2018-05-27T08:17:48.425Z,25.92
2018-05-27T08:19:53.737Z,26.07
2018-05-27T08:21:59.499Z,25.88
2018-05-27T08:24:05.916Z,25.89
2018-05-27T08:26:14.957Z,25.93
2018-05-27T08:28:22.706Z,26.14
2018-05-27T08:30:28.412Z,26.27
2018-05-27T08:32:33.749Z,26.41
2018-05-27T08:34:39.837Z,26.22
2018-05-27T08:36:46.094Z,26.33
2018-05-27T08:38:51.524Z,26.33
2018-05-27T08:40:56.762Z,26.39
2018-05-27T08:43:02.337Z,26.38
2018-05-27T08:45:09.752Z,26.39
2018-05-27T08:47:17.026Z,26.32
2018-05-27T08:49:25.170Z,26.55
2018-05-27T08:51:30.393Z,26.48
2018-05-27T08:53:35.823Z,26.44
2018-05-27T08:55:41.467Z,26.52
2018-05-27T08:57:46.749Z,26.47
2018-05-27T08:59:52.298Z,26.51
2018-05-27T09:01:58.564Z,26.64
2018-05-27T09:04:04.142Z,26.63
2018-05-27T09:06:12.857Z,26.69
2018-05-27T09:08:26.942Z,26.71
2018-05-27T09:10:32.666Z,26.68
2018-05-27T09:12:37.906Z,26.71
2018-05-27T09:14:43.625Z,26.74
2018-05-27T09:16:49.106Z,26.78
2018-05-27T09:18:54.482Z,26.74
2018-05-27T09:21:00.338Z,26.70
2018-05-27T09:23:06.211Z,26.76
2018-05-27T09:25:14.711Z,26.89
2018-05-27T09:27:22.477Z,26.91
2018-05-27T09:29:27.742Z,26.89
2018-05-27T09:31:32.929Z,26.93
2018-05-27T09:33:39.094Z,26.96
2018-05-27T09:35:44.519Z,27.01
2018-05-27T09:37:49.830Z,26.87
2018-05-27T09:39:55.363Z,26.93
2018-05-27T09:42:00.542Z,26.98
2018-05-27T09:44:07.170Z,26.91
2018-05-27T09:46:16.423Z,26.83
2018-05-27T09:48:24.332Z,26.92
2018-05-27T09:50:29.818Z,26.92
2018-05-27T09:52:35.489Z,26.94
2018-05-27T09:54:40.911Z,27.06
2018-05-27T09:56:46.784Z,27.12
2018-05-27T09:58:52.309Z,27.14
2018-05-27T10:00:57.571Z,27.20
2018-05-27T10:03:03.078Z,27.14
2018-05-27T10:05:11.544Z,27.17
2018-05-27T10:07:19.908Z,27.19
2018-05-27T10:09:25.566Z,27.19
2018-05-27T10:11:31.245Z,27.27
2018-05-27T10:13:37.871Z,27.31
2018-05-27T10:15:43.421Z,27.37
2018-05-27T10:17:48.889Z,27.34
2018-05-27T10:19:54.195Z,27.35
2018-05-27T10:21:59.771Z,27.40
2018-05-27T10:24:06.036Z,27.35
2018-05-27T10:26:15.563Z,27.38
2018-05-27T10:28:22.613Z,27.38
2018-05-27T10:30:28.197Z,27.38
2018-05-27T10:32:33.528Z,27.38
2018-05-27T10:34:40.001Z,27.47
2018-05-27T10:36:45.962Z,27.47
2018-05-27T10:38:51.142Z,27.48
2018-05-27T10:40:56.333Z,27.58
2018-05-27T10:43:02.299Z,27.60
2018-05-27T10:45:13.238Z,27.59
2018-05-27T10:47:20.890Z,27.68
2018-05-27T10:49:27.058Z,27.63
2018-05-27T10:51:32.339Z,27.67
2018-05-27T10:53:37.572Z,27.75
2018-05-27T10:55:43.390Z,27.73
2018-05-27T10:57:48.827Z,27.79
2018-05-27T10:59:54.236Z,27.79
2018-05-27T11:01:59.906Z,27.89
2018-05-27T11:04:07.128Z,27.97
2018-05-27T11:06:14.559Z,28.09
2018-05-27T11:08:25.360Z,28.12
2018-05-27T11:10:30.844Z,28.09
2018-05-27T11:12:36.441Z,28.06
2018-05-27T11:14:42.091Z,28.14
2018-05-27T11:16:48.694Z,28.14
2018-05-27T11:18:54.765Z,28.24
2018-05-27T11:21:00.634Z,28.30
2018-05-27T11:23:06.813Z,28.32
2018-05-27T11:25:16.206Z,28.38
2018-05-27T11:27:23.702Z,28.35
2018-05-27T11:29:28.962Z,28.35
2018-05-27T11:31:38.418Z,28.35
2018-05-27T11:33:44.194Z,28.32
2018-05-27T11:35:50.153Z,28.36
2018-05-27T11:37:55.502Z,28.35
2018-05-27T11:40:01.289Z,28.37
2018-05-27T11:42:08.080Z,28.38
2018-05-27T11:44:16.208Z,28.43
2018-05-27T11:46:25.693Z,28.50
2018-05-27T11:48:31.949Z,28.63
2018-05-27T11:50:37.313Z,28.70
2018-05-27T11:52:42.994Z,28.79
2018-05-27T11:54:48.245Z,28.83
2018-05-27T11:56:53.518Z,28.82
2018-05-27T11:59:00.280Z,28.72
2018-05-27T12:01:06.926Z,28.74
2018-05-27T12:03:15.549Z,29.05
2018-05-27T12:05:23.083Z,29.24
2018-05-27T12:07:29.752Z,30.66
2018-05-27T12:09:35.132Z,31.58
2018-05-27T12:11:41.567Z,32.20
2018-05-27T12:13:48.401Z,32.61
2018-05-27T12:15:54.223Z,31.43
2018-05-27T12:17:59.866Z,31.16
2018-05-27T12:20:05.626Z,31.63
2018-05-27T12:22:14.172Z,31.20
2018-05-27T12:24:22.949Z,33.00
2018-05-27T12:26:28.227Z,33.62
2018-05-27T12:28:34.782Z,33.91
2018-05-27T12:30:40.449Z,34.26
2018-05-27T12:32:46.429Z,34.64
2018-05-27T12:34:51.852Z,34.40
2018-05-27T12:36:57.620Z,33.24
2018-05-27T12:39:02.957Z,33.78
2018-05-27T12:41:11.218Z,33.74
2018-05-27T12:43:22.160Z,32.87
2018-05-27T12:45:27.971Z,31.90
2018-05-27T12:47:33.421Z,33.10
2018-05-27T12:49:39.015Z,33.12
2018-05-27T12:51:44.499Z,32.08
2018-05-27T12:53:49.939Z,31.57
2018-05-27T12:55:56.816Z,32.25
2018-05-27T12:58:02.169Z,33.31
2018-05-27T13:00:08.982Z,34.09
2018-05-27T13:02:20.337Z,34.52
2018-05-27T13:04:27.667Z,35.40
2018-05-27T13:06:32.919Z,35.89
2018-05-27T13:08:39.010Z,36.01
2018-05-27T13:10:44.633Z,36.22
2018-05-27T13:12:50.110Z,36.37
2018-05-27T13:14:55.836Z,36.56
2018-05-27T13:17:01.438Z,36.62
2018-05-27T13:19:07.444Z,36.55
2018-05-27T13:21:16.094Z,36.41
2018-05-27T13:23:24.186Z,36.57
2018-05-27T13:25:31.198Z,36.36
2018-05-27T13:27:37.616Z,36.33
2018-05-27T13:29:43.038Z,36.28
2018-05-27T13:31:48.503Z,34.80
2018-05-27T13:33:54.586Z,33.22
2018-05-27T13:36:01.090Z,31.90
2018-05-27T13:38:07.817Z,31.20
2018-05-27T13:40:16.787Z,30.82
2018-05-27T13:42:24.685Z,30.57
2018-05-27T13:44:30.039Z,30.46
2018-05-27T13:46:35.961Z,30.29
2018-05-27T13:48:41.519Z,30.16
2018-05-27T13:50:46.704Z,30.14
2018-05-27T13:52:52.595Z,30.41
2018-05-27T13:54:57.910Z,30.80
2018-05-27T13:57:03.680Z,30.64
2018-05-27T13:59:10.756Z,30.55
2018-05-27T14:01:18.228Z,30.36
2018-05-27T14:03:25.047Z,30.26
2018-05-27T14:05:30.659Z,30.02
2018-05-27T14:07:36.047Z,29.90
2018-05-27T14:09:41.362Z,29.82
2018-05-27T14:11:46.848Z,29.74
2018-05-27T14:13:52.146Z,29.67
2018-05-27T14:15:57.327Z,29.53
2018-05-27T14:18:03.189Z,29.47
2018-05-27T14:20:11.075Z,29.41
2018-05-27T14:22:19.639Z,29.42
2018-05-27T14:24:25.576Z,29.44
2018-05-27T14:26:30.864Z,29.27
2018-05-27T14:28:37.203Z,29.25
2018-05-27T14:30:42.762Z,29.16
2018-05-27T14:32:47.935Z,29.00
2018-05-27T14:34:53.110Z,29.01
2018-05-27T14:36:58.741Z,28.87
2018-05-27T14:39:04.526Z,28.83
2018-05-27T14:41:10.681Z,28.73
2018-05-27T14:43:18.290Z,28.63
2018-05-27T14:45:25.539Z,28.66
2018-05-27T14:49:40.674Z,28.66
2018-05-27T14:51:45.850Z,28.69
2018-05-27T14:53:51.157Z,28.63
2018-05-27T14:55:57.445Z,28.52
2018-05-27T14:58:02.692Z,28.54
2018-05-27T15:00:11.694Z,28.69
2018-05-27T15:02:19.620Z,28.74
2018-05-27T15:04:26.310Z,28.84
2018-05-27T15:06:31.862Z,28.93
2018-05-27T15:08:37.722Z,29.09
2018-05-27T15:10:43.158Z,29.39
2018-05-27T15:12:50.802Z,29.63
2018-05-27T15:14:57.261Z,29.76
2018-05-27T15:17:02.505Z,29.61
2018-05-27T15:19:10.301Z,29.32
2018-05-27T15:21:18.938Z,29.14
2018-05-27T15:23:24.785Z,29.09
2018-05-27T15:25:30.128Z,29.06
2018-05-27T15:27:36.017Z,29.05
2018-05-27T15:29:42.235Z,29.06
2018-05-27T15:31:47.763Z,28.98
2018-05-27T15:33:53.843Z,28.92
2018-05-27T15:35:59.241Z,28.81
2018-05-27T15:38:05.306Z,28.81
2018-05-27T15:40:14.405Z,28.75
2018-05-27T15:42:23.585Z,28.62
2018-05-27T15:44:29.325Z,28.51
2018-05-27T15:48:44.566Z,28.44
2018-05-27T15:50:49.917Z,28.46
2018-05-27T15:52:55.757Z,28.41
2018-05-27T15:55:02.640Z,28.35
2018-05-27T15:57:10.767Z,28.29
2018-05-27T15:59:18.912Z,28.31
2018-05-27T16:01:24.901Z,28.28
2018-05-27T16:03:31.029Z,28.30
2018-05-27T16:05:37.075Z,28.35
2018-05-27T16:07:42.982Z,28.37
2018-05-27T16:09:48.450Z,28.35
2018-05-27T16:11:54.576Z,28.32
2018-05-27T16:14:00.725Z,28.29
2018-05-27T16:16:07.333Z,28.29
2018-05-27T16:18:17.447Z,28.30
2018-05-27T16:20:24.071Z,28.22
2018-05-27T16:22:29.521Z,28.22
2018-05-27T16:24:36.215Z,28.24
2018-05-27T16:26:41.642Z,28.25
2018-05-27T16:28:46.974Z,28.23
2018-05-27T16:30:56.251Z,28.21
2018-05-27T16:33:01.740Z,28.12
2018-05-27T16:35:09.391Z,28.08
2018-05-27T16:37:18.472Z,28.02
2018-05-27T16:39:24.687Z,27.91
2018-05-27T16:41:29.974Z,27.90
2018-05-27T16:43:36.443Z,27.83
2018-05-27T16:45:41.827Z,27.83
2018-05-27T16:47:47.358Z,27.71
2018-05-27T16:49:52.904Z,27.69
2018-05-27T16:51:58.407Z,27.75
2018-05-27T16:54:11.154Z,27.65
2018-05-27T16:56:20.221Z,27.64
2018-05-27T16:58:27.779Z,27.61
2018-05-27T17:00:33.051Z,27.54
2018-05-27T17:02:39.188Z,27.56
2018-05-27T17:04:44.865Z,27.63
2018-05-27T17:06:51.245Z,27.69
2018-05-27T17:08:56.861Z,27.68
2018-05-27T17:11:02.147Z,27.70
2018-05-27T17:13:09.638Z,27.64
2018-05-27T17:15:18.686Z,27.67
2018-05-27T17:17:24.738Z,27.55
2018-05-27T17:19:29.934Z,27.23
2018-05-27T17:21:36.742Z,27.27
2018-05-27T17:23:42.202Z,27.16
2018-05-27T17:25:47.685Z,27.16
2018-05-27T17:27:53.596Z,27.24
2018-05-27T17:29:59.047Z,27.32
2018-05-27T17:32:04.846Z,27.21
2018-05-27T17:34:13.032Z,27.24
2018-05-27T17:36:21.714Z,27.36
2018-05-27T17:38:27.009Z,27.46
2018-05-27T17:40:32.653Z,27.48
2018-05-27T17:42:38.612Z,27.51
2018-05-27T17:44:44.913Z,27.53
2018-05-27T17:46:51.067Z,27.55
2018-05-27T17:48:56.361Z,27.55
2018-05-27T17:51:01.688Z,27.52
2018-05-27T17:53:09.497Z,27.46
2018-05-27T17:55:17.711Z,27.44
2018-05-27T17:57:24.980Z,27.39
2018-05-27T17:59:30.661Z,27.39
2018-05-27T18:01:36.479Z,27.36
2018-05-27T18:03:41.977Z,27.24
2018-05-27T18:05:47.911Z,27.13
2018-05-27T18:07:53.982Z,26.88
2018-05-27T18:09:59.941Z,26.94
2018-05-27T18:12:08.187Z,26.97
2018-05-27T18:14:18.563Z,26.98
2018-05-27T18:16:25.991Z,27.01
2018-05-27T18:18:31.527Z,27.00
2018-05-27T18:20:37.196Z,27.02
2018-05-27T18:22:42.642Z,26.94
2018-05-27T18:24:48.683Z,26.91
2018-05-27T18:26:54.267Z,27.10
2018-05-27T18:28:59.730Z,27.11
2018-05-27T18:31:06.401Z,27.14
2018-05-27T18:33:16.551Z,27.09
2018-05-27T18:35:24.993Z,27.05
2018-05-27T18:37:30.996Z,27.09
2018-05-27T18:39:38.463Z,27.08
2018-05-27T18:41:44.228Z,27.07
2018-05-27T18:43:50.196Z,27.05
2018-05-27T18:45:55.792Z,26.97
2018-05-27T18:48:01.325Z,26.72
2018-05-27T18:50:09.516Z,26.50
2018-05-27T18:52:18.102Z,26.62
2018-05-27T18:54:25.585Z,26.53
2018-05-27T18:56:31.314Z,26.24
2018-05-27T18:58:36.846Z,26.17
2018-05-27T19:00:42.248Z,26.34
2018-05-27T19:02:47.978Z,26.59
2018-05-27T19:04:53.443Z,26.68
2018-05-27T19:06:58.774Z,26.74
2018-05-27T19:09:05.337Z,26.74
2018-05-27T19:11:14.137Z,26.58
2018-05-27T19:13:22.697Z,26.66
2018-05-27T19:15:28.806Z,26.65
2018-05-27T19:17:34.309Z,26.72
2018-05-27T19:19:39.847Z,26.71
2018-05-27T19:21:45.913Z,26.70
2018-05-27T19:23:52.013Z,26.67
2018-05-27T19:25:58.123Z,26.67
2018-05-27T19:28:04.181Z,26.59
2018-05-27T19:30:10.591Z,26.58
2018-05-27T19:32:20.574Z,26.22
2018-05-27T19:34:26.580Z,26.38
2018-05-27T19:36:32.855Z,26.41
2018-05-27T19:38:38.258Z,26.44
2018-05-27T19:40:44.689Z,26.48
2018-05-27T19:42:50.222Z,26.34
2018-05-27T19:44:56.428Z,26.28
2018-05-27T19:47:02.478Z,26.24
2018-05-27T19:49:10.769Z,25.98
2018-05-27T19:51:18.824Z,26.16
2018-05-27T19:53:26.846Z,26.32
2018-05-27T19:55:32.430Z,26.31
2018-05-27T19:57:37.944Z,26.28
2018-05-27T19:59:43.816Z,26.24
2018-05-27T20:01:49.269Z,26.10
2018-05-27T20:03:54.806Z,26.18
2018-05-27T20:06:00.644Z,26.21
2018-05-27T20:08:07.290Z,26.12
2018-05-27T20:10:15.761Z,26.01
2018-05-27T20:12:29.806Z,26.04
2018-05-27T20:14:35.461Z,26.15
2018-05-27T20:16:40.929Z,26.24
2018-05-27T20:18:46.691Z,26.26
2018-05-27T20:20:52.248Z,26.25
2018-05-27T20:22:58.306Z,26.06
2018-05-27T20:25:04.641Z,26.10
2018-05-27T20:27:13.232Z,26.09
2018-05-27T20:29:20.314Z,26.12
2018-05-27T20:31:26.417Z,26.03
2018-05-27T20:33:32.093Z,26.06
2018-05-27T20:37:47.631Z,26.09
2018-05-27T20:39:53.108Z,26.10
2018-05-27T20:41:58.672Z,26.16
2018-05-27T20:44:04.736Z,26.16
2018-05-27T20:46:14.237Z,26.14
2018-05-27T20:48:21.566Z,26.15
2018-05-27T20:50:28.353Z,26.11
2018-05-27T20:52:33.724Z,25.80
2018-05-27T20:54:39.306Z,25.83
2018-05-27T20:56:45.289Z,25.92
2018-05-27T20:58:50.619Z,25.95
2018-05-27T21:00:56.671Z,25.97
2018-05-27T21:03:04.127Z,26.02
2018-05-27T21:05:15.060Z,26.03
2018-05-27T21:07:26.106Z,25.92
2018-05-27T21:09:32.292Z,25.84
2018-05-27T21:11:39.147Z,25.80
2018-05-27T21:13:44.507Z,25.69
2018-05-27T21:15:54.734Z,25.69
2018-05-27T21:18:00.488Z,25.83
2018-05-27T21:20:06.619Z,25.19
2018-05-27T21:22:16.328Z,25.11
2018-05-27T21:24:23.483Z,25.31
2018-05-27T21:26:28.721Z,25.67
2018-05-27T21:28:34.518Z,25.46
2018-05-27T21:30:39.887Z,25.47
2018-05-27T21:32:45.138Z,25.64
2018-05-27T21:34:51.282Z,25.81
2018-05-27T21:36:56.660Z,25.86
2018-05-27T21:39:02.345Z,25.92
2018-05-27T21:41:08.299Z,25.95
2018-05-27T21:43:18.414Z,25.87
2018-05-27T21:45:30.555Z,25.87
2018-05-27T21:47:38.671Z,25.84
2018-05-27T21:49:44.807Z,25.67
2018-05-27T21:51:50.207Z,25.60
2018-05-27T21:53:55.835Z,25.53
2018-05-27T21:56:01.272Z,25.54
2018-05-27T21:58:08.125Z,25.42
2018-05-27T22:00:17.621Z,25.22
2018-05-27T22:02:25.731Z,25.32
2018-05-27T22:04:31.729Z,25.20
2018-05-27T22:06:37.226Z,25.19
2018-05-27T22:08:42.800Z,25.51
2018-05-27T22:10:50.066Z,25.41
2018-05-27T22:12:55.610Z,25.36
2018-05-27T22:15:02.639Z,25.46
2018-05-27T22:17:11.771Z,25.49
2018-05-27T22:19:20.306Z,24.96
2018-05-27T22:23:26.112Z,25.42
2018-05-27T22:25:33.145Z,25.44
2018-05-27T22:27:38.749Z,25.49
2018-05-27T22:29:44.265Z,25.31
2018-05-27T22:31:50.554Z,25.38
2018-05-27T22:33:57.151Z,25.43
2018-05-27T22:36:03.527Z,25.35
2018-05-27T22:38:13.131Z,25.28
2018-05-27T22:40:20.982Z,25.20
2018-05-27T22:42:28.287Z,25.20
2018-05-27T22:44:33.953Z,25.14
2018-05-27T22:46:39.395Z,24.97
2018-05-27T22:48:44.682Z,25.10
2018-05-27T22:50:50.540Z,25.33
2018-05-27T22:52:55.958Z,25.17
2018-05-27T22:55:01.326Z,24.47
2018-05-27T22:57:09.292Z,24.41
2018-05-27T22:59:17.961Z,24.36
2018-05-27T23:01:26.713Z,24.40
2018-05-27T23:03:40.778Z,24.56
2018-05-27T23:06:07.926Z,24.41
2018-05-27T23:08:33.821Z,24.54
2018-05-27T23:10:39.290Z,24.67
2018-05-27T23:12:53.188Z,24.94
2018-05-27T23:14:58.477Z,24.71
2018-05-27T23:17:05.310Z,24.73
2018-05-27T23:19:14.243Z,24.80
2018-05-27T23:21:22.421Z,24.74
2018-05-27T23:23:28.282Z,24.93
2018-05-27T23:25:33.438Z,25.01
2018-05-27T23:27:38.597Z,24.59
2018-05-27T23:29:44.278Z,24.55
2018-05-27T23:31:50.254Z,24.61
2018-05-27T23:33:55.998Z,24.78
2018-05-27T23:36:01.554Z,24.64
2018-05-27T23:38:07.257Z,24.37
2018-05-27T23:40:15.716Z,24.57
2018-05-27T23:42:24.126Z,24.76
2018-05-27T23:44:29.251Z,24.83
2018-05-27T23:46:35.579Z,25.04
2018-05-27T23:48:42.065Z,24.99
2018-05-27T23:50:48.082Z,24.81
2018-05-27T23:52:53.353Z,24.85
2018-05-27T23:54:58.810Z,25.13
2018-05-27T23:57:03.968Z,24.53
2018-05-27T23:59:30.423Z,24.91
